createdAt,value
2018-11-07T00:01:32.946Z,80.00
2018-11-07T00:06:51.466Z,79.81
2018-11-07T00:12:10.168Z,79.61
2018-11-07T00:17:28.662Z,78.61
2018-11-07T00:22:47.227Z,78.12
2018-11-07T00:28:05.791Z,78.38
2018-11-07T00:33:24.639Z,78.59
2018-11-07T00:38:43.135Z,78.62
2018-11-07T00:44:01.667Z,78.57
2018-11-07T00:49:20.163Z,77.42
2018-11-07T00:54:38.806Z,77.69
2018-11-07T00:59:57.327Z,77.68
2018-11-07T01:05:15.942Z,77.82
2018-11-07T01:10:34.451Z,77.71
2018-11-07T01:15:52.968Z,78.20
2018-11-07T01:21:11.520Z,77.82
2018-11-07T01:26:30.268Z,77.76
2018-11-07T01:31:48.788Z,78.27
2018-11-07T01:37:07.313Z,78.24
2018-11-07T01:42:26.011Z,77.47
2018-11-07T01:47:44.547Z,77.38
2018-11-07T01:53:03.031Z,77.05
2018-11-07T01:58:21.584Z,77.33
2018-11-07T02:03:40.126Z,77.65
2018-11-07T02:08:58.699Z,77.64
2018-11-07T02:14:17.255Z,78.07
2018-11-07T02:19:36.311Z,77.83
2018-11-07T02:24:54.850Z,77.95
2018-11-07T02:30:15.227Z,77.90
2018-11-07T02:35:33.747Z,77.92
2018-11-07T02:40:52.295Z,78.22
2018-11-07T02:46:10.836Z,78.55
2018-11-07T02:51:29.348Z,78.57
2018-11-07T02:56:47.881Z,79.15
2018-11-07T03:02:06.494Z,79.43
2018-11-07T03:07:25.222Z,79.62
2018-11-07T03:12:43.728Z,79.66
2018-11-07T03:18:02.287Z,79.86
2018-11-07T03:23:20.871Z,80.10
2018-11-07T03:28:39.519Z,79.67
2018-11-07T03:33:58.059Z,79.89
2018-11-07T03:39:16.563Z,80.30
2018-11-07T03:44:35.058Z,80.22
2018-11-07T03:49:53.574Z,80.05
2018-11-07T03:55:12.064Z,80.28
2018-11-07T04:00:30.563Z,80.73
2018-11-07T04:05:49.046Z,80.89
2018-11-07T04:11:07.573Z,81.42
2018-11-07T04:16:32.797Z,81.96
2018-11-07T04:21:51.350Z,82.40
2018-11-07T04:27:09.832Z,82.24
2018-11-07T04:32:28.402Z,82.41
2018-11-07T04:37:46.945Z,82.70
2018-11-07T04:43:05.834Z,82.98
2018-11-07T04:48:24.395Z,83.28
2018-11-07T04:53:42.931Z,83.19
2018-11-07T04:59:01.584Z,82.81
2018-11-07T05:04:20.142Z,82.25
2018-11-07T05:09:38.730Z,82.09
2018-11-07T05:14:57.251Z,82.00
2018-11-07T05:20:15.782Z,81.42
2018-11-07T05:25:34.270Z,80.97
2018-11-07T05:30:52.783Z,81.23
2018-11-07T05:36:11.804Z,80.60
2018-11-07T05:41:30.493Z,80.88
2018-11-07T05:46:48.970Z,80.60
2018-11-07T05:52:07.539Z,81.13
2018-11-07T05:57:26.031Z,81.10
2018-11-07T06:02:44.544Z,81.00
2018-11-07T06:08:03.025Z,80.72
2018-11-07T06:13:21.580Z,80.42
2018-11-07T06:18:40.082Z,80.35
2018-11-07T06:23:58.552Z,80.47
2018-11-07T06:29:17.040Z,79.99
2018-11-07T06:34:35.688Z,79.90
2018-11-07T06:39:54.223Z,78.87
2018-11-07T06:45:12.686Z,79.55
2018-11-07T06:50:31.181Z,80.04
2018-11-07T06:55:49.855Z,80.00
2018-11-07T07:01:08.356Z,79.61
2018-11-07T07:06:26.828Z,78.75
2018-11-07T07:11:45.351Z,78.66
2018-11-07T07:17:03.882Z,78.89
2018-11-07T07:22:22.390Z,79.01
2018-11-07T07:27:41.530Z,79.30
2018-11-07T07:33:00.100Z,77.78
2018-11-07T07:38:18.642Z,77.84
2018-11-07T07:43:37.131Z,77.63
2018-11-07T07:48:55.655Z,77.42
2018-11-07T07:54:14.167Z,76.88
2018-11-07T07:59:32.731Z,76.58
2018-11-07T08:04:51.290Z,75.69
2018-11-07T08:10:12.478Z,74.50
2018-11-07T08:15:31.042Z,73.44
2018-11-07T08:20:49.566Z,72.07
2018-11-07T08:26:08.087Z,72.53
2018-11-07T08:31:26.592Z,71.84
2018-11-07T08:36:45.361Z,70.17
2018-11-07T08:42:03.889Z,70.80
2018-11-07T08:47:22.553Z,69.47
2018-11-07T08:52:41.112Z,69.49
2018-11-07T08:58:01.632Z,69.66
2018-11-07T09:03:20.340Z,69.73
2018-11-07T09:08:38.917Z,67.94
2018-11-07T09:13:57.465Z,67.80
2018-11-07T09:19:16.010Z,67.89
2018-11-07T09:24:34.762Z,66.46
2018-11-07T09:29:53.281Z,66.06
2018-11-07T09:35:12.376Z,66.93
2018-11-07T09:40:31.008Z,66.28
2018-11-07T09:45:49.539Z,65.29
2018-11-07T09:51:08.050Z,64.54
2018-11-07T09:56:26.568Z,63.53
2018-11-07T10:01:45.083Z,63.31
2018-11-07T10:07:03.639Z,63.14
2018-11-07T10:12:22.189Z,61.92
2018-11-07T10:17:40.692Z,61.61
2018-11-07T10:22:59.216Z,61.23
2018-11-07T10:28:17.850Z,60.17
2018-11-07T10:33:36.310Z,59.24
2018-11-07T10:38:54.859Z,59.75
2018-11-07T10:44:13.410Z,60.36
2018-11-07T10:49:31.933Z,60.97
2018-11-07T10:54:50.556Z,60.45
2018-11-07T11:00:17.601Z,59.49
2018-11-07T11:05:36.404Z,59.32
2018-11-07T11:10:55.227Z,59.05
2018-11-07T11:16:13.735Z,59.25
2018-11-07T11:21:32.240Z,59.19
2018-11-07T11:26:54.647Z,59.24
2018-11-07T11:32:13.221Z,59.49
2018-11-07T11:37:31.754Z,58.74
2018-11-07T11:42:50.590Z,59.98
2018-11-07T11:48:09.157Z,59.39
2018-11-07T11:53:27.692Z,59.38
2018-11-07T11:58:46.242Z,58.15
2018-11-07T12:04:04.778Z,54.96
2018-11-07T12:09:23.296Z,54.94
2018-11-07T12:14:41.812Z,55.23
2018-11-07T12:20:00.335Z,55.28
2018-11-07T12:25:19.682Z,55.88
2018-11-07T12:30:38.196Z,56.54
2018-11-07T12:35:56.887Z,56.28
2018-11-07T12:41:15.400Z,56.74
2018-11-07T12:46:34.866Z,55.83
2018-11-07T12:51:53.491Z,55.07
2018-11-07T12:57:12.160Z,56.41
2018-11-07T13:02:31.319Z,54.31
2018-11-07T13:07:50.462Z,53.33
2018-11-07T13:13:09.020Z,53.99
2018-11-07T13:18:27.620Z,55.68
2018-11-07T13:23:46.540Z,55.55
2018-11-07T13:29:05.038Z,54.46
2018-11-07T13:34:23.607Z,54.40
2018-11-07T13:39:42.161Z,55.76
2018-11-07T13:45:00.633Z,54.56
2018-11-07T13:50:19.470Z,54.52
2018-11-07T13:55:37.966Z,54.02
2018-11-07T14:00:56.519Z,55.00
2018-11-07T14:06:15.096Z,54.57
2018-11-07T14:11:33.723Z,56.24
2018-11-07T14:16:52.366Z,56.33
2018-11-07T14:22:10.867Z,56.97
2018-11-07T14:27:29.476Z,57.72
2018-11-07T14:32:52.962Z,58.38
2018-11-07T14:38:11.643Z,59.49
2018-11-07T14:43:30.159Z,58.65
2018-11-07T14:48:48.625Z,58.94
2018-11-07T14:54:07.222Z,59.33
2018-11-07T14:59:25.867Z,59.87
2018-11-07T15:04:44.422Z,60.43
2018-11-07T15:10:02.999Z,58.76
2018-11-07T15:15:21.646Z,60.68
2018-11-07T15:20:40.166Z,60.27
2018-11-07T15:25:58.711Z,60.09
2018-11-07T15:31:17.203Z,60.50
2018-11-07T15:36:36.413Z,61.90
2018-11-07T15:41:55.362Z,61.60
2018-11-07T15:47:13.937Z,62.29
2018-11-07T15:52:32.644Z,64.21
2018-11-07T15:57:51.306Z,66.44
2018-11-07T16:03:09.804Z,68.55
2018-11-07T16:08:28.328Z,70.31
2018-11-07T16:13:47.434Z,73.27
2018-11-07T16:19:06.098Z,76.02
2018-11-07T16:24:24.734Z,80.49
2018-11-07T16:29:43.270Z,81.54
2018-11-07T16:35:02.247Z,82.15
2018-11-07T16:40:21.415Z,82.88
2018-11-07T16:45:39.948Z,83.31
2018-11-07T16:50:58.931Z,84.04
2018-11-07T16:56:17.489Z,85.17
2018-11-07T17:07:39.313Z,86.33
2018-11-07T17:12:57.979Z,85.01
2018-11-07T17:18:16.464Z,85.55
2018-11-07T17:23:35.240Z,85.42
2018-11-07T17:29:02.143Z,85.53
2018-11-07T17:34:21.485Z,83.82
2018-11-07T17:39:40.129Z,85.42
2018-11-07T17:44:58.915Z,84.29
2018-11-07T17:50:18.334Z,84.20
2018-11-07T17:55:36.972Z,82.59
2018-11-07T18:00:55.594Z,84.00
2018-11-07T18:06:14.752Z,82.60
2018-11-07T18:11:33.251Z,81.30
2018-11-07T18:16:51.748Z,82.29
2018-11-07T18:22:10.553Z,80.50
2018-11-07T18:27:29.111Z,80.42
2018-11-07T18:32:48.273Z,79.79
2018-11-07T18:38:07.934Z,80.89
2018-11-07T18:43:26.486Z,80.99
2018-11-07T18:48:44.995Z,81.17
2018-11-07T18:54:03.817Z,78.78
2018-11-07T18:59:22.366Z,80.38
2018-11-07T19:04:40.904Z,81.08
2018-11-07T19:09:59.423Z,81.18
2018-11-07T19:15:18.651Z,81.17
2018-11-07T19:20:37.420Z,81.60
2018-11-07T19:25:56.238Z,81.30
2018-11-07T19:31:15.427Z,82.02
2018-11-07T19:36:35.176Z,82.01
2018-11-07T19:41:53.695Z,81.30
2018-11-07T19:47:12.824Z,80.73
2018-11-07T19:52:32.288Z,80.50
2018-11-07T19:57:53.199Z,80.84
2018-11-07T20:03:13.064Z,79.84
2018-11-07T20:08:31.611Z,80.57
2018-11-07T20:13:50.129Z,81.66
2018-11-07T20:19:09.811Z,81.54
2018-11-07T20:24:28.389Z,81.01
2018-11-07T20:29:46.909Z,80.88
2018-11-07T20:35:07.460Z,81.41
2018-11-07T20:40:26.376Z,81.85
2018-11-07T20:45:45.574Z,81.05
2018-11-07T20:51:04.137Z,81.10
2018-11-07T20:56:23.233Z,80.74
2018-11-07T21:01:41.762Z,81.86
2018-11-07T21:07:00.331Z,82.11
2018-11-07T21:12:19.097Z,81.65
2018-11-07T21:17:37.754Z,81.66
2018-11-07T21:22:56.356Z,81.49
2018-11-07T21:28:15.102Z,81.42
2018-11-07T21:33:35.313Z,82.26
2018-11-07T21:38:53.939Z,81.96
2018-11-07T21:44:12.814Z,82.21
2018-11-07T21:49:31.617Z,82.56
2018-11-07T21:54:50.197Z,82.86
2018-11-07T22:00:12.276Z,82.84
2018-11-07T22:05:30.846Z,82.71
2018-11-07T22:10:49.407Z,82.78
2018-11-07T22:16:09.516Z,82.87
2018-11-07T22:21:28.002Z,83.51
2018-11-07T22:26:46.483Z,82.55
2018-11-07T22:32:05.321Z,82.08
2018-11-07T22:37:23.902Z,82.25
2018-11-07T22:42:42.728Z,83.07
2018-11-07T22:48:01.679Z,82.32
2018-11-07T22:53:20.151Z,81.99
2018-11-07T22:58:38.665Z,81.84
2018-11-07T23:03:57.154Z,81.99
2018-11-07T23:09:15.900Z,82.47
2018-11-07T23:14:34.385Z,82.53
2018-11-07T23:19:52.867Z,82.86
2018-11-07T23:25:11.430Z,82.94
2018-11-07T23:30:30.689Z,82.44
2018-11-07T23:35:49.253Z,82.50
2018-11-07T23:41:07.773Z,82.17
2018-11-07T23:46:26.235Z,81.51
2018-11-07T23:51:49.356Z,82.48
2018-11-07T23:57:07.910Z,82.39
